createdAt,value
2018-02-06T00:01:47.741Z,11.13
2018-02-06T00:04:15.204Z,10.80
2018-02-06T00:06:42.679Z,6.83
2018-02-06T00:09:10.213Z,11.60
2018-02-06T00:11:37.689Z,10.73
2018-02-06T00:14:05.169Z,7.17
2018-02-06T00:16:32.631Z,10.97
2018-02-06T00:19:00.409Z,11.10
2018-02-06T00:21:28.637Z,10.07
2018-02-06T00:23:56.085Z,10.53
2018-02-06T00:26:23.569Z,9.70
2018-02-06T00:28:51.067Z,10.27
2018-02-06T00:31:18.613Z,9.80
2018-02-06T00:33:46.064Z,9.60
2018-02-06T00:36:13.552Z,10.40
2018-02-06T00:38:41.028Z,10.75
2018-02-06T00:41:08.521Z,9.82
2018-02-06T00:43:35.980Z,11.03
2018-02-06T00:46:03.456Z,9.20
2018-02-06T00:48:30.922Z,6.47
2018-02-06T00:50:59.169Z,10.98
2018-02-06T00:53:26.637Z,9.00
2018-02-06T00:55:54.123Z,10.90
2018-02-06T00:58:21.589Z,9.75
2018-02-06T01:00:49.119Z,9.45
2018-02-06T01:03:16.580Z,9.00
2018-02-06T01:05:44.086Z,10.30
2018-02-06T01:08:11.586Z,9.25
2018-02-06T01:10:39.049Z,10.00
2018-02-06T01:13:06.508Z,9.57
2018-02-06T01:15:34.018Z,9.10
2018-02-06T01:18:01.513Z,11.38
2018-02-06T01:20:28.996Z,9.57
2018-02-06T01:22:57.245Z,9.63
2018-02-06T01:25:24.737Z,10.37
2018-02-06T01:27:52.209Z,9.25
2018-02-06T01:30:19.702Z,11.02
2018-02-06T01:32:47.217Z,10.57
2018-02-06T01:35:15.458Z,11.93
2018-02-06T01:37:42.921Z,10.47
2018-02-06T01:40:10.419Z,9.80
2018-02-06T01:42:38.693Z,11.00
2018-02-06T01:45:06.152Z,8.25
2018-02-06T01:47:33.651Z,13.20
2018-02-06T01:50:04.921Z,9.15
2018-02-06T01:52:32.851Z,11.17
2018-02-06T01:55:00.337Z,9.45
2018-02-06T01:57:27.801Z,11.27
2018-02-06T01:59:55.293Z,10.50
2018-02-06T02:02:23.538Z,11.85
2018-02-06T02:04:51.009Z,12.10
2018-02-06T02:07:18.497Z,11.55
2018-02-06T02:09:46.042Z,11.85
2018-02-06T02:12:14.305Z,11.30
2018-02-06T02:14:41.777Z,10.17
2018-02-06T02:17:10.034Z,12.63
2018-02-06T02:19:37.530Z,12.13
2018-02-06T02:22:05.068Z,11.32
2018-02-06T02:24:32.549Z,12.27
2018-02-06T02:27:00.011Z,8.75
2018-02-06T02:29:27.505Z,12.30
2018-02-06T02:31:54.971Z,10.63
2018-02-06T02:34:22.456Z,7.22
2018-02-06T02:36:50.718Z,11.32
2018-02-06T02:39:18.201Z,9.35
2018-02-06T04:39:48.310Z,10.48
2018-02-06T04:42:15.760Z,9.10
2018-02-06T04:44:43.245Z,10.90
2018-02-06T04:47:10.702Z,9.05
2018-02-06T04:49:38.197Z,9.95
2018-02-06T04:52:05.689Z,12.15
2018-02-06T04:54:33.185Z,11.57
2018-02-06T04:57:00.668Z,9.75
2018-02-06T04:59:28.245Z,10.02
2018-02-06T05:01:55.706Z,6.32
2018-02-06T05:04:23.200Z,7.50
2018-02-06T05:06:50.661Z,8.43
2018-02-06T05:09:18.174Z,13.02
2018-02-06T05:11:45.641Z,10.25
2018-02-06T05:14:13.105Z,10.55
2018-02-06T05:16:40.673Z,10.00
2018-02-06T05:19:08.149Z,5.25
2018-02-06T05:21:35.618Z,9.52
2018-02-06T05:24:03.108Z,8.98
2018-02-06T05:26:31.341Z,8.52
2018-02-06T05:28:58.828Z,11.35
2018-02-06T05:31:27.082Z,9.43
2018-02-06T05:33:54.549Z,9.65
2018-02-06T05:36:22.022Z,8.52
2018-02-06T05:38:50.285Z,7.72
2018-02-06T05:41:17.744Z,9.52
2018-02-06T05:43:45.234Z,8.70
2018-02-06T05:46:12.700Z,9.95
2018-02-06T05:48:40.193Z,9.85
2018-02-06T05:51:07.656Z,7.87
2018-02-06T05:53:35.136Z,3.95
2018-02-06T05:56:02.637Z,8.75
2018-02-06T05:58:30.197Z,6.85
2018-02-06T06:00:57.652Z,9.00
2018-02-06T06:03:25.153Z,6.87
2018-02-06T06:05:52.626Z,9.13
2018-02-06T06:08:20.086Z,8.18
2018-02-06T06:10:47.582Z,6.30
2018-02-06T06:13:15.032Z,7.90
2018-02-06T06:15:42.504Z,5.85
2018-02-06T06:18:10.001Z,10.00
2018-02-06T06:20:37.481Z,10.35
2018-02-06T06:23:04.944Z,7.72
2018-02-06T06:25:33.211Z,7.60
2018-02-06T06:28:00.686Z,10.98
2018-02-06T06:30:28.958Z,6.68
2018-02-06T06:32:56.414Z,5.25
2018-02-06T06:35:23.909Z,5.30
2018-02-06T06:37:51.370Z,8.75
2018-02-06T06:40:19.857Z,10.35
2018-02-06T06:42:47.472Z,10.13
2018-02-06T06:45:14.959Z,7.45
2018-02-06T06:47:43.293Z,11.43
2018-02-06T06:50:10.785Z,10.82
2018-02-06T06:52:38.278Z,9.95
2018-02-06T06:55:05.778Z,4.80
2018-02-06T06:57:33.257Z,9.85
2018-02-06T07:00:01.485Z,6.32
2018-02-06T07:02:28.990Z,8.48
2018-02-06T07:04:56.457Z,9.98
2018-02-06T07:07:23.928Z,10.90
2018-02-06T07:09:51.384Z,10.00
2018-02-06T07:12:18.880Z,11.07
2018-02-06T07:14:46.345Z,11.05
2018-02-06T07:17:13.838Z,11.68
2018-02-06T07:19:41.397Z,9.75
2018-02-06T07:22:09.626Z,11.10
2018-02-06T07:24:37.118Z,7.30
2018-02-06T07:27:04.636Z,6.32
2018-02-06T07:29:32.142Z,11.48
2018-02-06T07:31:59.610Z,6.40
2018-02-06T07:34:27.120Z,8.77
2018-02-06T07:36:54.684Z,9.45
2018-02-06T07:39:22.157Z,12.85
2018-02-06T07:41:49.663Z,10.73
2018-02-06T07:44:17.146Z,7.97
2018-02-06T07:46:44.617Z,7.60
2018-02-06T07:49:12.144Z,5.00
2018-02-06T07:51:39.623Z,11.15
2018-02-06T07:54:07.134Z,5.78
2018-02-06T07:56:34.601Z,9.57
2018-02-06T07:59:02.626Z,11.38
2018-02-06T08:01:30.092Z,8.77
2018-02-06T08:03:57.589Z,8.40
2018-02-06T08:06:25.054Z,9.75
2018-02-06T08:08:52.522Z,9.95
2018-02-06T08:11:20.117Z,12.77
2018-02-06T08:13:47.867Z,12.67
2018-02-06T08:16:15.338Z,10.40
2018-02-06T08:18:42.882Z,12.13
2018-02-06T08:21:10.370Z,6.03
2018-02-06T08:23:37.834Z,10.52
2018-02-06T08:26:05.371Z,6.95
2018-02-06T08:28:33.794Z,8.20
2018-02-06T08:31:01.245Z,10.45
2018-02-06T08:33:28.713Z,5.32
2018-02-06T08:35:57.000Z,8.80
2018-02-06T08:38:24.763Z,12.50
2018-02-06T08:40:52.233Z,11.18
2018-02-06T08:43:19.710Z,10.37
2018-02-06T08:45:47.174Z,9.20
2018-02-06T08:48:14.733Z,10.57
2018-02-06T08:50:42.195Z,11.82
2018-02-06T08:53:09.695Z,11.50
2018-02-06T08:55:37.190Z,11.57
2018-02-06T08:58:04.786Z,11.30
2018-02-06T09:00:32.246Z,8.25
2018-02-06T09:02:59.738Z,11.00
2018-02-06T09:05:27.337Z,5.43
2018-02-06T09:07:54.831Z,8.02
2018-02-06T09:10:22.300Z,5.78
2018-02-06T09:12:49.782Z,10.40
2018-02-06T09:15:18.018Z,9.63
2018-02-06T09:17:45.510Z,10.82
2018-02-06T09:20:12.977Z,9.50
2018-02-06T09:22:40.484Z,12.32
2018-02-06T09:25:07.964Z,11.12
2018-02-06T09:27:35.488Z,8.55
2018-02-06T09:30:02.969Z,9.77
2018-02-06T09:32:30.447Z,12.10
2018-02-06T09:34:57.929Z,11.13
2018-02-06T09:37:25.433Z,9.10
2018-02-06T09:39:52.958Z,8.38
2018-02-06T09:42:21.221Z,11.60
2018-02-06T09:44:49.479Z,10.90
2018-02-06T09:47:16.968Z,11.43
2018-02-06T09:49:45.196Z,11.60
2018-02-06T09:52:12.864Z,11.03
2018-02-06T09:54:40.318Z,12.23
2018-02-06T09:57:07.833Z,9.30
2018-02-06T09:59:35.277Z,7.70
2018-02-06T10:02:03.504Z,13.57
2018-02-06T10:04:31.047Z,10.83
2018-02-06T10:06:58.511Z,10.50
2018-02-06T10:09:25.986Z,12.48
2018-02-06T10:11:53.476Z,12.40
2018-02-06T10:14:20.946Z,11.87
2018-02-06T10:16:48.428Z,6.90
2018-02-06T10:19:15.949Z,12.73
2018-02-06T10:21:44.184Z,10.95
2018-02-06T10:24:11.668Z,10.00
2018-02-06T10:26:39.133Z,9.15
2018-02-06T10:29:06.616Z,12.67
2018-02-06T10:31:34.832Z,10.50
2018-02-06T10:34:02.309Z,10.67
2018-02-06T10:36:29.793Z,9.27
2018-02-06T10:38:57.281Z,11.37
2018-02-06T10:41:24.749Z,11.10
2018-02-06T10:43:52.220Z,11.30
2018-02-06T10:46:19.726Z,10.23
2018-02-06T10:48:47.239Z,10.93
2018-02-06T10:51:14.737Z,9.73
2018-02-06T10:53:42.195Z,6.80
2018-02-06T10:56:09.667Z,11.93
2018-02-06T10:58:37.195Z,12.27
2018-02-06T11:01:04.642Z,11.90
2018-02-06T11:03:32.095Z,10.73
2018-02-06T11:05:59.588Z,11.37
2018-02-06T11:08:27.048Z,11.80
2018-02-06T11:10:54.560Z,10.00
2018-02-06T11:13:22.028Z,9.40
2018-02-06T11:15:49.481Z,6.17
2018-02-06T11:18:16.968Z,10.97
2018-02-06T11:20:44.440Z,11.87
2018-02-06T11:23:11.936Z,10.80
2018-02-06T11:25:39.401Z,10.20
2018-02-06T11:28:06.877Z,9.80
2018-02-06T11:30:34.359Z,11.07
2018-02-06T11:33:01.829Z,11.40
2018-02-06T11:35:29.310Z,10.17
2018-02-06T11:37:56.769Z,9.57
2018-02-06T11:40:24.238Z,9.33
2018-02-06T11:42:51.726Z,11.20
2018-02-06T11:45:19.185Z,12.03
2018-02-06T11:47:46.678Z,10.53
2018-02-06T11:50:14.191Z,9.80
2018-02-06T11:52:41.681Z,10.40
2018-02-06T11:55:09.211Z,11.07
2018-02-06T11:57:36.677Z,8.80
2018-02-06T12:00:04.197Z,10.20
2018-02-06T12:02:32.969Z,9.70
2018-02-06T12:05:00.421Z,8.83
2018-02-06T12:07:27.889Z,8.47
2018-02-06T12:09:55.357Z,9.13
2018-02-06T12:12:22.857Z,9.57
2018-02-06T12:14:50.344Z,10.93
2018-02-06T12:17:17.822Z,10.17
2018-02-06T12:19:45.305Z,10.37
2018-02-06T12:22:13.533Z,10.83
2018-02-06T12:24:41.033Z,10.37
2018-02-06T12:27:09.248Z,8.27
2018-02-06T12:29:36.752Z,9.40
2018-02-06T12:32:04.228Z,11.80
2018-02-06T12:34:32.473Z,6.97
2018-02-06T12:36:59.976Z,10.47
2018-02-06T12:39:27.736Z,10.37
2018-02-06T12:41:55.192Z,9.10
2018-02-06T12:44:22.644Z,10.43
2018-02-06T12:46:50.122Z,10.77
2018-02-06T12:49:17.592Z,10.53
2018-02-06T12:51:45.049Z,9.87
2018-02-06T12:54:12.555Z,9.63
2018-02-06T12:56:40.830Z,9.97
2018-02-06T12:59:09.157Z,9.77
2018-02-06T13:01:36.657Z,8.47
2018-02-06T13:04:05.035Z,9.30
2018-02-06T13:06:32.511Z,10.93
2018-02-06T13:09:00.777Z,10.53
2018-02-06T13:11:28.245Z,10.23
2018-02-06T13:13:55.737Z,10.30
2018-02-06T13:16:23.192Z,10.27
2018-02-06T13:18:50.642Z,9.17
2018-02-06T13:21:18.881Z,9.20
2018-02-06T13:23:46.324Z,9.87
2018-02-06T13:26:13.804Z,11.13
2018-02-06T13:28:41.273Z,10.40
2018-02-06T13:31:09.512Z,7.80
2018-02-06T13:33:36.992Z,11.03
2018-02-06T13:36:04.436Z,10.40
2018-02-06T13:38:31.912Z,8.63
2018-02-06T13:40:59.360Z,10.10
2018-02-06T13:43:26.924Z,10.40
2018-02-06T13:45:54.429Z,10.53
2018-02-06T13:48:21.888Z,9.33
2018-02-06T13:50:49.384Z,9.50
2018-02-06T13:53:16.971Z,9.80
2018-02-06T13:55:44.565Z,10.73
2018-02-06T13:58:12.054Z,10.00
2018-02-06T14:00:39.540Z,10.73
2018-02-06T14:03:07.021Z,9.83
2018-02-06T14:05:34.500Z,8.17
2018-02-06T14:08:01.972Z,9.83
2018-02-06T14:10:29.438Z,8.97
2018-02-06T14:12:56.918Z,9.80
2018-02-06T14:15:24.399Z,8.33
2018-02-06T14:17:51.871Z,10.77
2018-02-06T14:20:20.214Z,10.17
2018-02-06T14:22:47.706Z,10.93
2018-02-06T14:25:15.971Z,10.30
2018-02-06T14:27:43.416Z,9.33
2018-02-06T14:30:10.902Z,11.37
2018-02-06T14:32:38.393Z,8.80
2018-02-06T14:35:05.896Z,10.60
2018-02-06T14:37:33.428Z,8.17
2018-02-06T14:40:00.922Z,9.73
2018-02-06T14:42:28.377Z,9.60
2018-02-06T14:44:55.864Z,8.57
2018-02-06T14:47:23.326Z,11.10
2018-02-06T14:49:50.905Z,8.97
2018-02-06T14:52:18.372Z,9.80
2018-02-06T14:54:45.845Z,7.80
2018-02-06T14:57:13.323Z,9.97
2018-02-06T14:59:40.773Z,9.53
2018-02-06T15:02:08.245Z,10.57
2018-02-06T15:04:35.735Z,8.67
2018-02-06T15:07:03.232Z,10.97
2018-02-06T15:09:30.700Z,9.97
2018-02-06T15:11:58.315Z,10.27
2018-02-06T15:14:25.806Z,9.87
2018-02-06T15:16:53.278Z,11.30
2018-02-06T15:19:20.789Z,8.33
2018-02-06T15:21:48.241Z,8.93
2018-02-06T15:24:16.763Z,11.50
2018-02-06T15:26:44.213Z,9.60
2018-02-06T15:29:12.831Z,9.87
2018-02-06T15:31:40.316Z,7.17
2018-02-06T15:34:09.389Z,7.00
2018-02-06T15:36:37.826Z,9.77
2018-02-06T15:39:05.328Z,8.50
2018-02-06T15:41:32.989Z,9.10
2018-02-06T15:44:00.611Z,10.67
2018-02-06T15:46:28.074Z,8.70
2018-02-06T15:48:55.647Z,9.10
2018-02-06T15:51:23.240Z,8.97
2018-02-06T15:53:50.789Z,9.70
2018-02-06T15:56:18.332Z,10.27
2018-02-06T15:58:45.907Z,10.77
2018-02-06T16:01:16.349Z,8.93
2018-02-06T16:03:43.807Z,8.60
2018-02-06T16:06:11.360Z,8.93
2018-02-06T16:08:38.835Z,9.77
2018-02-06T16:11:06.432Z,9.90
2018-02-06T16:13:34.051Z,8.70
2018-02-06T16:16:01.586Z,8.87
2018-02-06T16:18:29.116Z,8.40
2018-02-06T16:20:56.602Z,9.10
2018-02-06T16:23:24.096Z,7.77
2018-02-06T16:25:52.329Z,9.23
2018-02-06T16:28:19.834Z,8.33
2018-02-06T16:30:47.324Z,8.60
2018-02-06T16:33:14.821Z,11.53
2018-02-06T16:35:43.220Z,8.93
2018-02-06T16:38:10.733Z,8.90
2018-02-06T16:40:38.426Z,9.07
2018-02-06T16:43:06.144Z,10.50
2018-02-06T16:45:33.673Z,7.43
2018-02-06T16:48:01.142Z,7.20
2018-02-06T16:50:28.644Z,8.17
2018-02-06T16:52:56.105Z,8.80
2018-02-06T16:55:23.670Z,25.40
2018-02-06T16:57:51.208Z,12.80
2018-02-06T17:00:18.985Z,11.07
2018-02-06T17:02:46.602Z,10.17
2018-02-06T17:05:14.878Z,14.87
2018-02-06T17:07:42.519Z,8.37
2018-02-06T17:10:10.257Z,18.10
2018-02-06T17:12:38.752Z,24.40
2018-02-06T17:15:07.114Z,16.30
2018-02-06T17:17:34.770Z,22.03
2018-02-06T17:20:02.294Z,43.07
2018-02-06T17:22:30.402Z,62.17
2018-02-06T17:24:57.929Z,69.70
2018-02-06T17:27:26.322Z,121.70
2018-02-06T17:29:53.821Z,39.37
2018-02-06T17:32:21.308Z,17.10
2018-02-06T17:34:48.893Z,22.30
2018-02-06T17:37:16.509Z,23.57
2018-02-06T17:39:44.000Z,12.07
2018-02-06T17:42:11.481Z,15.70
2018-02-06T17:44:38.937Z,10.63
2018-02-06T17:47:06.424Z,9.33
2018-02-06T17:49:33.892Z,9.57
2018-02-06T17:52:01.376Z,9.57
2018-02-06T17:54:28.880Z,9.97
2018-02-06T17:56:56.427Z,12.20
2018-02-06T17:59:23.845Z,11.07
2018-02-06T18:01:51.334Z,10.97
2018-02-06T18:04:19.020Z,11.30
2018-02-06T18:06:46.502Z,9.30
2018-02-06T18:09:14.039Z,8.60
2018-02-06T18:11:42.340Z,9.15
2018-02-06T18:14:09.800Z,8.67
2018-02-06T18:16:37.283Z,8.73
2018-02-06T18:19:04.761Z,10.07
2018-02-06T18:21:32.304Z,10.07
2018-02-06T18:23:59.783Z,7.73
2018-02-06T18:26:28.030Z,8.80
2018-02-06T18:28:55.496Z,9.53
2018-02-06T18:31:23.236Z,9.23
2018-02-06T18:33:50.756Z,9.33
2018-02-06T18:36:18.312Z,8.90
2018-02-06T18:38:45.895Z,9.13
2018-02-06T18:41:13.413Z,9.17
2018-02-06T18:43:41.669Z,7.87
2018-02-06T18:46:09.126Z,8.40
2018-02-06T18:48:36.610Z,8.63
2018-02-06T18:51:04.833Z,9.77
2018-02-06T18:53:32.438Z,8.40
2018-02-06T18:56:00.666Z,9.27
2018-02-06T18:58:28.176Z,9.87
2018-02-06T19:00:55.720Z,9.30
2018-02-06T19:03:23.236Z,9.20
2018-02-06T19:05:50.731Z,9.63
2018-02-06T19:08:18.200Z,8.70
2018-02-06T19:10:45.677Z,9.40
2018-02-06T19:13:13.359Z,9.00
2018-02-06T19:15:41.172Z,8.97
2018-02-06T19:18:08.674Z,8.93
2018-02-06T19:20:36.263Z,8.10
2018-02-06T19:23:03.741Z,8.67
2018-02-06T19:25:31.232Z,6.60
2018-02-06T19:27:58.756Z,9.67
2018-02-06T19:30:26.258Z,8.40
2018-02-06T19:32:54.690Z,8.30
2018-02-06T19:35:22.393Z,9.40
2018-02-06T19:37:50.659Z,8.30
2018-02-06T19:40:18.155Z,7.70
2018-02-06T19:42:46.397Z,9.90
2018-02-06T19:45:14.038Z,8.20
2018-02-06T19:47:41.542Z,8.43
2018-02-06T19:50:09.805Z,8.87
2018-02-06T19:52:37.312Z,8.17
2018-02-06T19:55:04.966Z,9.30
2018-02-06T19:57:32.465Z,8.10
2018-02-06T20:00:00.056Z,9.87
2018-02-06T20:02:28.340Z,9.33
2018-02-06T20:04:56.810Z,8.57
2018-02-06T20:07:24.436Z,8.97
2018-02-06T20:09:52.724Z,8.40
2018-02-06T20:12:20.475Z,8.23
2018-02-06T20:14:48.749Z,8.80
2018-02-06T20:17:16.230Z,7.83
2018-02-06T20:19:43.748Z,8.13
2018-02-06T20:22:11.979Z,8.83
2018-02-06T20:24:39.655Z,7.90
2018-02-06T20:27:08.127Z,8.13
2018-02-06T20:29:36.444Z,8.80
2018-02-06T20:32:04.055Z,7.67
2018-02-06T20:34:32.328Z,7.93
2018-02-06T20:36:59.900Z,8.40
2018-02-06T20:39:27.354Z,6.87
2018-02-06T20:41:54.909Z,9.20
2018-02-06T20:44:22.361Z,9.10
2018-02-06T20:46:50.080Z,8.13
2018-02-06T20:49:17.581Z,8.50
2018-02-06T20:51:45.177Z,8.43
2018-02-06T20:54:12.853Z,9.00
2018-02-06T20:56:40.355Z,9.23
2018-02-06T20:59:07.829Z,9.10
2018-02-06T21:01:35.436Z,8.73
2018-02-06T21:04:02.929Z,8.30
2018-02-06T21:06:30.433Z,8.70
2018-02-06T21:08:58.008Z,7.57
2018-02-06T21:11:25.769Z,8.40
2018-02-06T21:13:53.302Z,6.83
2018-02-06T21:16:20.945Z,8.33
2018-02-06T21:18:48.487Z,7.90
2018-02-06T21:21:16.033Z,9.40
2018-02-06T21:23:43.678Z,8.07
2018-02-06T21:26:11.327Z,7.43
2018-02-06T21:28:38.882Z,8.47
2018-02-06T21:31:07.142Z,7.80
2018-02-06T21:33:34.606Z,7.83
2018-02-06T21:36:02.089Z,8.27
2018-02-06T21:38:29.568Z,8.03
2018-02-06T21:40:57.025Z,8.00
2018-02-06T21:43:24.501Z,7.40
2018-02-06T21:45:51.991Z,7.93
2018-02-06T21:48:19.484Z,8.68
2018-02-06T21:50:46.950Z,8.20
2018-02-06T21:53:14.434Z,5.30
2018-02-06T21:55:42.662Z,7.37
2018-02-06T21:58:10.141Z,7.53
2018-02-06T22:00:37.597Z,6.37
2018-02-06T22:03:05.109Z,7.40
2018-02-06T22:05:32.598Z,6.67
2018-02-06T22:08:00.854Z,7.50
2018-02-06T22:10:28.346Z,6.80
2018-02-06T22:12:56.629Z,6.90
2018-02-06T22:15:24.119Z,7.10
2018-02-06T22:17:51.586Z,7.57
2018-02-06T22:20:19.079Z,7.05
2018-02-06T22:22:46.567Z,7.97
2018-02-06T22:25:14.070Z,8.30
2018-02-06T22:27:41.577Z,7.20
2018-02-06T22:30:09.038Z,6.70
2018-02-06T22:32:36.501Z,6.45
2018-02-06T22:35:04.006Z,8.80
2018-02-06T22:37:31.476Z,8.97
2018-02-06T22:39:58.930Z,7.43
2018-02-06T22:42:26.419Z,8.30
2018-02-06T22:44:53.879Z,6.83
2018-02-06T22:47:21.370Z,8.73
2018-02-06T22:49:48.907Z,7.53
2018-02-06T22:52:16.379Z,7.28
2018-02-06T22:54:43.853Z,8.02
2018-02-06T22:57:11.321Z,7.60
2018-02-06T22:59:38.809Z,7.27
2018-02-06T23:02:06.273Z,7.05
2018-02-06T23:04:33.977Z,7.43
2018-02-06T23:07:01.472Z,7.10
2018-02-06T23:09:28.955Z,6.93
2018-02-06T23:11:57.212Z,9.23
2018-02-06T23:14:24.700Z,8.80
2018-02-06T23:16:52.950Z,7.93
2018-02-06T23:19:20.429Z,8.80
2018-02-06T23:21:48.659Z,7.43
2018-02-06T23:24:16.177Z,8.57
2018-02-06T23:26:44.394Z,7.72
2018-02-06T23:29:11.894Z,7.20
2018-02-06T23:31:40.133Z,7.47
2018-02-06T23:34:07.618Z,7.63
2018-02-06T23:36:35.885Z,8.77
2018-02-06T23:39:03.369Z,8.73
2018-02-06T23:41:31.605Z,8.37
2018-02-06T23:43:59.068Z,8.60
2018-02-06T23:46:26.565Z,7.50
2018-02-06T23:48:55.894Z,9.07
2018-02-06T23:51:23.370Z,8.87
2018-02-06T23:53:50.865Z,9.45
2018-02-06T23:56:18.356Z,9.73
2018-02-06T23:58:45.828Z,8.35
